createdAt,value
2019-03-18T00:00:56.199Z,4.90
2019-03-18T00:03:26.111Z,4.90
2019-03-18T00:06:06.589Z,5.10
2019-03-18T00:08:38.084Z,5.10
2019-03-18T00:11:17.640Z,5.20
2019-03-18T00:13:50.490Z,5.30
2019-03-18T00:16:20.443Z,5.30
2019-03-18T00:18:50.491Z,5.30
2019-03-18T00:21:24.969Z,5.30
2019-03-18T00:23:54.889Z,5.30
2019-03-18T00:26:43.821Z,5.40
2019-03-18T00:29:13.657Z,5.30
2019-03-18T00:31:49.108Z,5.10
2019-03-18T00:34:19.227Z,5.00
2019-03-18T00:36:50.795Z,4.80
2019-03-18T00:39:25.233Z,4.80
2019-03-18T00:41:59.081Z,4.70
2019-03-18T00:44:29.031Z,4.70
2019-03-18T00:47:00.690Z,4.60
2019-03-18T00:49:34.207Z,4.40
2019-03-18T00:52:06.389Z,4.20
2019-03-18T00:54:36.306Z,4.00
2019-03-18T00:59:53.712Z,4.30
2019-03-18T01:02:21.340Z,4.00
2019-03-18T01:04:51.610Z,3.90
2019-03-18T01:07:23.861Z,3.80
2019-03-18T01:09:55.656Z,3.70
2019-03-18T01:12:28.554Z,3.70
2019-03-18T01:15:00.166Z,3.80
2019-03-18T01:17:30.280Z,3.70
2019-03-18T01:20:04.881Z,3.50
2019-03-18T01:22:31.969Z,3.50
2019-03-18T01:25:02.614Z,3.40
2019-03-18T01:27:34.958Z,3.40
2019-03-18T01:30:09.587Z,3.50
2019-03-18T01:32:39.683Z,3.40
2019-03-18T01:35:21.298Z,3.30
2019-03-18T01:37:51.850Z,3.30
2019-03-18T01:40:21.809Z,3.40
2019-03-18T01:42:53.952Z,3.50
2019-03-18T01:45:39.719Z,3.30
2019-03-18T01:48:01.704Z,3.20
2019-03-18T01:50:31.476Z,3.30
2019-03-18T01:53:01.689Z,3.30
2019-03-18T01:55:31.583Z,3.20
2019-03-18T01:58:01.491Z,3.40
2019-03-18T02:00:37.878Z,3.50
2019-03-18T02:03:05.863Z,3.30
2019-03-18T02:05:35.783Z,3.20
2019-03-18T02:08:05.734Z,3.20
2019-03-18T02:10:35.746Z,3.00
2019-03-18T02:13:10.034Z,2.90
2019-03-18T02:15:53.338Z,2.90
2019-03-18T02:18:23.349Z,2.80
2019-03-18T02:20:57.791Z,2.80
2019-03-18T02:23:31.061Z,2.70
2019-03-18T02:26:02.608Z,2.80
2019-03-18T02:28:37.343Z,2.70
2019-03-18T02:31:07.604Z,2.60
2019-03-18T02:33:39.094Z,2.60
2019-03-18T02:36:09.036Z,2.50
2019-03-18T02:38:41.727Z,2.50
2019-03-18T02:41:13.842Z,2.40
2019-03-18T02:43:47.261Z,2.20
2019-03-18T02:46:32.016Z,2.20
2019-03-18T02:49:01.919Z,2.00
2019-03-18T02:51:32.209Z,2.00
2019-03-18T02:54:05.899Z,2.00
2019-03-18T02:56:36.693Z,1.90
2019-03-18T02:59:14.433Z,1.90
2019-03-18T03:01:44.762Z,1.70
2019-03-18T03:04:14.632Z,1.70
2019-03-18T03:06:44.687Z,1.70
2019-03-18T03:09:14.721Z,1.70
2019-03-18T03:11:44.694Z,1.60
2019-03-18T03:14:16.355Z,1.70
2019-03-18T03:16:46.394Z,1.60
2019-03-18T03:19:21.247Z,1.60
2019-03-18T03:21:51.250Z,1.50
2019-03-18T03:24:22.870Z,1.50
2019-03-18T03:26:52.938Z,1.50
2019-03-18T03:29:24.180Z,1.70
2019-03-18T03:31:54.288Z,1.70
2019-03-18T03:34:25.967Z,1.70
2019-03-18T03:36:58.528Z,1.60
2019-03-18T03:39:32.858Z,1.70
2019-03-18T03:42:03.412Z,1.60
2019-03-18T03:44:35.438Z,1.80
2019-03-18T03:47:05.045Z,1.70
2019-03-18T03:49:45.214Z,1.60
2019-03-18T03:52:06.576Z,1.70
2019-03-18T03:54:40.204Z,1.70
2019-03-18T03:57:11.624Z,1.80
2019-03-18T03:59:49.225Z,2.10
2019-03-18T04:02:21.213Z,2.10
2019-03-18T04:04:51.556Z,2.20
2019-03-18T04:07:21.984Z,2.20
2019-03-18T04:09:53.740Z,2.20
2019-03-18T04:12:25.072Z,2.10
2019-03-18T04:14:55.012Z,2.20
2019-03-18T04:17:28.767Z,2.20
2019-03-18T04:20:04.479Z,2.20
2019-03-18T04:22:32.164Z,2.30
2019-03-18T04:25:08.708Z,2.40
2019-03-18T04:27:39.568Z,2.40
2019-03-18T04:30:18.911Z,2.30
2019-03-18T04:32:48.681Z,2.40
2019-03-18T04:35:21.007Z,2.50
2019-03-18T04:37:52.487Z,2.70
2019-03-18T04:40:26.936Z,2.70
2019-03-18T04:43:00.148Z,2.70
2019-03-18T04:45:34.417Z,2.70
2019-03-18T04:48:04.244Z,2.60
2019-03-18T04:50:38.087Z,2.60
2019-03-18T04:53:16.192Z,2.70
2019-03-18T04:55:47.855Z,2.70
2019-03-18T04:58:19.434Z,2.70
2019-03-18T05:00:54.537Z,2.80
2019-03-18T05:03:26.047Z,2.80
2019-03-18T05:05:57.534Z,2.90
2019-03-18T05:08:33.575Z,2.80
2019-03-18T05:10:59.145Z,3.00
2019-03-18T05:13:30.882Z,3.10
2019-03-18T05:16:03.429Z,2.90
2019-03-18T05:18:38.847Z,2.80
2019-03-18T05:21:11.392Z,2.90
2019-03-18T05:23:44.567Z,2.80
2019-03-18T05:26:29.335Z,2.70
2019-03-18T05:28:46.906Z,2.70
2019-03-18T05:31:20.928Z,2.80
2019-03-18T05:33:52.521Z,3.00
2019-03-18T05:36:23.424Z,2.90
2019-03-18T05:38:53.505Z,2.80
2019-03-18T05:41:23.385Z,2.80
2019-03-18T05:43:53.330Z,2.70
2019-03-18T05:46:25.684Z,2.80
2019-03-18T05:48:56.953Z,3.00
2019-03-18T05:51:29.192Z,2.90
2019-03-18T05:53:59.286Z,2.80
2019-03-18T05:56:35.594Z,2.70
2019-03-18T05:59:12.830Z,2.70
2019-03-18T06:01:46.055Z,2.60
2019-03-18T06:04:16.251Z,2.70
2019-03-18T06:06:46.335Z,2.60
2019-03-18T06:09:30.365Z,2.70
2019-03-18T06:12:03.933Z,2.60
2019-03-18T06:14:38.477Z,2.60
2019-03-18T06:17:09.656Z,2.80
2019-03-18T06:19:39.638Z,2.90
2019-03-18T06:22:12.318Z,3.00
2019-03-18T06:24:41.713Z,2.90
2019-03-18T06:27:15.039Z,2.70
2019-03-18T06:29:47.487Z,2.70
2019-03-18T06:32:19.588Z,2.70
2019-03-18T06:34:52.338Z,2.80
2019-03-18T06:37:27.749Z,2.80
2019-03-18T06:39:57.697Z,2.90
2019-03-18T06:42:29.546Z,2.80
2019-03-18T06:45:04.004Z,2.80
2019-03-18T06:47:34.231Z,2.80
2019-03-18T06:50:04.327Z,2.90
2019-03-18T06:52:38.172Z,2.90
2019-03-18T06:55:09.025Z,2.80
2019-03-18T06:57:44.988Z,2.90
2019-03-18T07:00:15.062Z,2.80
2019-03-18T07:02:45.018Z,2.80
2019-03-18T07:05:16.370Z,2.90
2019-03-18T07:07:49.179Z,2.90
2019-03-18T07:10:23.775Z,3.10
2019-03-18T07:12:56.629Z,3.30
2019-03-18T07:15:35.671Z,3.50
2019-03-18T07:18:17.995Z,3.60
2019-03-18T07:20:43.778Z,3.70
2019-03-18T07:23:16.755Z,4.00
2019-03-18T07:25:59.032Z,4.30
2019-03-18T07:28:18.390Z,4.50
2019-03-18T07:30:57.307Z,4.90
2019-03-18T07:33:38.997Z,4.90
2019-03-18T07:36:13.147Z,5.20
2019-03-18T07:38:43.634Z,5.30
2019-03-18T07:41:15.569Z,5.60
2019-03-18T07:43:49.817Z,5.90
2019-03-18T07:46:17.099Z,6.00
2019-03-18T07:48:52.879Z,6.00
2019-03-18T07:51:25.533Z,6.00
2019-03-18T07:54:01.093Z,6.00
2019-03-18T07:56:31.300Z,6.30
2019-03-18T07:59:07.460Z,6.50
2019-03-18T08:01:39.831Z,6.20
2019-03-18T08:04:11.284Z,5.90
2019-03-18T08:07:01.757Z,5.80
2019-03-18T08:09:34.458Z,5.70
2019-03-18T08:12:11.441Z,5.70
2019-03-18T08:14:47.779Z,6.00
2019-03-18T08:17:25.275Z,6.50
2019-03-18T08:19:57.889Z,6.70
2019-03-18T08:22:31.173Z,6.90
2019-03-18T08:25:00.332Z,7.10
2019-03-18T08:27:37.366Z,7.20
2019-03-18T08:30:16.542Z,7.40
2019-03-18T08:32:50.835Z,7.30
2019-03-18T08:35:26.669Z,7.20
2019-03-18T08:38:06.010Z,7.40
2019-03-18T08:40:35.718Z,7.50
2019-03-18T08:43:06.761Z,7.50
2019-03-18T08:45:43.207Z,7.60
2019-03-18T08:48:13.176Z,7.50
2019-03-18T08:50:45.714Z,7.70
2019-03-18T08:53:15.642Z,7.70
2019-03-18T08:55:46.295Z,7.60
2019-03-18T08:58:16.163Z,7.90
2019-03-18T09:00:48.764Z,7.80
2019-03-18T09:03:18.566Z,7.90
2019-03-18T09:05:53.810Z,8.00
2019-03-18T09:08:26.414Z,8.60
2019-03-18T09:10:55.937Z,8.80
2019-03-18T09:13:32.006Z,9.20
2019-03-18T09:16:14.238Z,9.30
2019-03-18T09:18:39.958Z,9.40
2019-03-18T09:21:10.381Z,9.20
2019-03-18T09:23:46.101Z,9.10
2019-03-18T09:26:24.551Z,9.10
2019-03-18T09:28:56.370Z,9.20
2019-03-18T09:31:30.961Z,9.90
2019-03-18T09:34:02.348Z,10.20
2019-03-18T09:36:48.171Z,9.90
2019-03-18T09:39:19.736Z,10.40
2019-03-18T09:41:49.937Z,10.40
2019-03-18T09:44:20.011Z,10.00
2019-03-18T09:46:50.724Z,9.80
2019-03-18T09:49:22.355Z,9.80
2019-03-18T09:51:55.289Z,9.70
2019-03-18T09:54:47.883Z,9.80
2019-03-18T09:57:25.796Z,9.70
2019-03-18T09:59:53.378Z,9.50
2019-03-18T10:02:39.654Z,9.60
2019-03-18T10:05:12.266Z,9.70
2019-03-18T10:07:59.769Z,9.60
2019-03-18T10:10:26.605Z,9.70
2019-03-18T10:12:58.352Z,9.90
2019-03-18T10:15:31.754Z,9.80
2019-03-18T10:18:00.848Z,9.70
2019-03-18T10:20:52.672Z,9.70
2019-03-18T10:23:24.021Z,9.80
2019-03-18T10:25:53.983Z,9.90
2019-03-18T10:28:26.773Z,10.10
2019-03-18T10:30:57.155Z,9.90
2019-03-18T10:33:27.098Z,10.00
2019-03-18T10:36:07.537Z,10.00
2019-03-18T10:38:28.818Z,10.00
2019-03-18T10:41:06.184Z,10.10
2019-03-18T10:43:38.918Z,9.90
2019-03-18T10:46:09.081Z,9.80
2019-03-18T10:48:39.160Z,9.70
2019-03-18T10:51:13.780Z,9.80
2019-03-18T10:53:46.695Z,10.00
2019-03-18T10:56:20.784Z,10.20
2019-03-18T10:58:56.262Z,10.50
2019-03-18T11:01:25.966Z,10.40
2019-03-18T11:04:00.496Z,10.10
2019-03-18T11:06:27.751Z,9.80
2019-03-18T11:09:06.020Z,9.70
2019-03-18T11:11:44.033Z,9.80
2019-03-18T11:14:19.137Z,9.70
2019-03-18T11:16:52.501Z,9.60
2019-03-18T11:19:22.934Z,9.80
2019-03-18T11:21:55.371Z,9.90
2019-03-18T11:24:28.555Z,9.90
2019-03-18T11:27:03.718Z,10.30
2019-03-18T11:29:41.221Z,10.20
2019-03-18T11:32:12.871Z,10.40
2019-03-18T11:34:45.928Z,10.60
2019-03-18T11:37:18.033Z,10.60
2019-03-18T11:39:48.730Z,10.80
2019-03-18T11:42:25.733Z,11.70
2019-03-18T11:45:00.408Z,11.30
2019-03-18T11:47:31.898Z,10.90
2019-03-18T11:50:28.601Z,11.00
2019-03-18T11:52:39.648Z,10.90
2019-03-18T11:55:21.260Z,10.60
2019-03-18T11:58:02.314Z,10.10
2019-03-18T12:00:34.544Z,9.40
2019-03-18T12:03:01.815Z,9.20
2019-03-18T12:05:37.720Z,9.80
2019-03-18T12:08:14.647Z,10.90
2019-03-18T12:10:45.016Z,11.30
2019-03-18T12:13:15.504Z,10.60
2019-03-18T12:15:52.424Z,10.20
2019-03-18T12:18:24.952Z,10.00
2019-03-18T12:20:54.969Z,9.90
2019-03-18T12:23:26.336Z,10.10
2019-03-18T12:26:18.255Z,10.00
2019-03-18T12:28:54.317Z,10.00
2019-03-18T12:31:30.078Z,9.70
2019-03-18T12:34:02.967Z,9.70
2019-03-18T12:36:38.902Z,9.50
2019-03-18T12:39:11.597Z,9.60
2019-03-18T12:41:47.145Z,9.60
2019-03-18T12:44:18.279Z,9.70
2019-03-18T12:46:55.259Z,9.90
2019-03-18T12:49:27.928Z,10.10
2019-03-18T12:51:58.266Z,10.10
2019-03-18T12:54:28.272Z,10.10
2019-03-18T12:56:58.502Z,10.10
2019-03-18T12:59:28.528Z,10.40
2019-03-18T13:01:58.740Z,10.40
2019-03-18T13:04:29.889Z,10.20
2019-03-18T13:07:05.787Z,10.50
2019-03-18T13:09:37.726Z,10.60
2019-03-18T13:12:13.258Z,10.60
2019-03-18T13:14:52.299Z,10.50
2019-03-18T13:17:20.147Z,10.50
2019-03-18T13:19:57.738Z,10.50
2019-03-18T13:22:27.869Z,10.50
2019-03-18T13:24:58.601Z,10.50
2019-03-18T13:27:30.472Z,10.50
2019-03-18T13:30:02.123Z,10.60
2019-03-18T13:32:34.521Z,10.60
2019-03-18T13:35:06.656Z,10.70
2019-03-18T13:37:38.426Z,10.70
2019-03-18T13:40:14.910Z,10.70
2019-03-18T13:42:51.392Z,10.80
2019-03-18T13:45:25.817Z,11.10
2019-03-18T13:47:57.537Z,11.00
2019-03-18T13:50:29.131Z,11.20
2019-03-18T13:53:00.735Z,11.10
2019-03-18T13:55:32.702Z,10.90
2019-03-18T13:58:03.480Z,10.90
2019-03-18T14:00:41.349Z,11.00
2019-03-18T14:03:27.177Z,11.40
2019-03-18T14:05:56.502Z,11.50
2019-03-18T14:08:26.660Z,11.60
2019-03-18T14:10:59.454Z,11.50
2019-03-18T14:13:30.142Z,11.30
2019-03-18T14:16:02.459Z,11.40
2019-03-18T14:18:32.536Z,11.40
2019-03-18T14:21:02.513Z,11.40
2019-03-18T14:23:38.046Z,11.90
2019-03-18T14:26:03.923Z,11.90
2019-03-18T14:28:41.343Z,12.20
2019-03-18T14:31:12.913Z,11.90
2019-03-18T14:33:42.951Z,11.70
2019-03-18T14:36:24.949Z,12.00
2019-03-18T14:38:54.609Z,12.30
2019-03-18T14:41:26.512Z,12.20
2019-03-18T14:44:02.510Z,12.70
2019-03-18T14:46:48.802Z,12.70
2019-03-18T14:49:18.105Z,12.70
2019-03-18T14:51:58.570Z,12.60
2019-03-18T14:54:26.687Z,12.50
2019-03-18T14:56:56.563Z,12.10
2019-03-18T14:59:30.529Z,11.80
2019-03-18T15:02:10.228Z,11.60
2019-03-18T15:04:37.574Z,11.40
2019-03-18T15:07:14.780Z,11.50
2019-03-18T15:10:07.102Z,11.40
2019-03-18T15:12:16.458Z,11.00
2019-03-18T15:14:49.822Z,10.70
2019-03-18T15:17:20.146Z,10.90
2019-03-18T15:19:59.470Z,10.80
2019-03-18T15:22:32.373Z,10.60
2019-03-18T15:25:02.758Z,11.00
2019-03-18T15:27:40.857Z,10.90
2019-03-18T15:30:16.820Z,11.00
2019-03-18T15:32:51.926Z,10.90
2019-03-18T15:35:26.351Z,10.90
2019-03-18T15:37:59.256Z,11.00
2019-03-18T15:40:30.859Z,10.90
2019-03-18T15:43:12.633Z,10.90
2019-03-18T15:45:38.779Z,10.90
2019-03-18T15:48:19.546Z,11.00
2019-03-18T15:50:49.665Z,10.70
2019-03-18T15:53:19.642Z,10.60
2019-03-18T15:55:50.522Z,10.60
2019-03-18T15:58:20.521Z,10.40
2019-03-18T16:00:57.891Z,10.30
2019-03-18T16:03:29.446Z,10.10
2019-03-18T16:06:06.673Z,10.00
2019-03-18T16:08:40.112Z,9.90
2019-03-18T16:11:10.781Z,9.80
2019-03-18T16:13:42.567Z,9.60
2019-03-18T16:16:13.895Z,9.30
2019-03-18T16:18:51.688Z,9.10
2019-03-18T16:21:24.544Z,8.70
2019-03-18T16:23:54.407Z,8.70
2019-03-18T16:26:26.969Z,8.60
2019-03-18T16:29:03.973Z,8.30
2019-03-18T16:31:32.662Z,8.50
2019-03-18T16:34:07.933Z,8.30
2019-03-18T16:36:39.480Z,8.40
2019-03-18T16:39:11.013Z,8.30
2019-03-18T16:41:46.838Z,8.20
2019-03-18T16:44:33.767Z,8.10
2019-03-18T16:46:52.521Z,8.00
2019-03-18T16:49:24.472Z,8.00
2019-03-18T16:52:01.760Z,8.00
2019-03-18T16:54:34.705Z,8.10
2019-03-18T16:57:13.726Z,8.10
2019-03-18T16:59:41.121Z,8.10
2019-03-18T17:02:15.579Z,8.20
2019-03-18T17:04:42.758Z,8.20
2019-03-18T17:07:12.637Z,8.30
2019-03-18T17:09:44.543Z,8.20
2019-03-18T17:12:19.540Z,8.20
2019-03-18T17:14:50.645Z,8.20
2019-03-18T17:17:24.175Z,8.20
2019-03-18T17:19:57.027Z,8.20
2019-03-18T17:22:32.729Z,8.20
2019-03-18T17:25:05.670Z,8.10
2019-03-18T17:27:35.590Z,8.00
2019-03-18T17:30:13.008Z,7.90
2019-03-18T17:32:46.807Z,7.90
2019-03-18T17:35:18.462Z,7.80
2019-03-18T17:37:48.480Z,7.70
2019-03-18T17:40:32.728Z,7.70
2019-03-18T17:43:11.606Z,7.70
2019-03-18T17:45:50.793Z,7.60
2019-03-18T17:48:26.829Z,7.70
2019-03-18T17:51:04.340Z,7.70
2019-03-18T17:53:30.575Z,7.70
2019-03-18T17:56:08.964Z,7.70
2019-03-18T17:58:44.838Z,7.70
2019-03-18T18:01:17.194Z,7.70
2019-03-18T18:03:49.393Z,7.70
2019-03-18T18:06:19.338Z,7.70
2019-03-18T18:08:50.926Z,7.50
2019-03-18T18:11:20.837Z,7.50
2019-03-18T18:13:56.528Z,7.40
2019-03-18T18:16:35.409Z,7.20
2019-03-18T18:19:08.741Z,7.10
2019-03-18T18:21:38.235Z,6.90
2019-03-18T18:24:09.991Z,6.80
2019-03-18T18:26:51.277Z,6.70
2019-03-18T18:29:34.577Z,6.50
2019-03-18T18:32:03.520Z,6.40
2019-03-18T18:34:34.218Z,6.30
2019-03-18T18:37:10.060Z,6.10
2019-03-18T18:39:41.761Z,6.00
2019-03-18T18:42:09.177Z,6.00
2019-03-18T18:44:39.306Z,5.80
2019-03-18T18:47:20.418Z,5.70
2019-03-18T18:49:53.914Z,5.70
2019-03-18T18:52:34.307Z,5.60
2019-03-18T18:55:02.451Z,5.50
2019-03-18T18:57:32.394Z,5.60
2019-03-18T19:00:07.259Z,5.50
2019-03-18T19:02:51.195Z,5.60
2019-03-18T19:05:14.388Z,5.60
2019-03-18T19:07:44.856Z,5.60
2019-03-18T19:10:20.200Z,5.60
2019-03-18T19:12:51.678Z,5.70
2019-03-18T19:15:26.303Z,5.70
2019-03-18T19:18:08.191Z,5.60
2019-03-18T19:20:40.169Z,5.50
2019-03-18T19:23:15.404Z,5.50
2019-03-18T19:25:58.267Z,5.40
2019-03-18T19:28:31.922Z,5.40
2019-03-18T19:31:09.085Z,5.40
2019-03-18T19:33:42.047Z,5.40
2019-03-18T19:36:17.424Z,5.40
2019-03-18T19:39:19.919Z,5.50
2019-03-18T19:41:52.713Z,5.40
2019-03-18T19:44:33.261Z,5.60
2019-03-18T19:46:58.321Z,5.60
2019-03-18T19:49:33.914Z,5.70
2019-03-18T19:52:11.719Z,5.80
2019-03-18T19:54:45.878Z,5.80
2019-03-18T19:57:24.603Z,5.90
2019-03-18T20:00:03.675Z,5.90
2019-03-18T20:02:54.517Z,5.90
2019-03-18T20:05:21.944Z,6.00
2019-03-18T20:07:52.742Z,6.00
2019-03-18T20:10:21.994Z,6.00
2019-03-18T20:12:57.642Z,6.00
2019-03-18T20:15:31.956Z,6.00
2019-03-18T20:18:46.355Z,6.00
2019-03-18T20:20:56.991Z,6.00
2019-03-18T20:23:29.309Z,6.10
2019-03-18T20:25:59.352Z,6.10
2019-03-18T20:28:30.938Z,6.00
2019-03-18T20:31:02.463Z,6.00
2019-03-18T20:33:58.853Z,6.10
2019-03-18T20:36:07.988Z,6.00
2019-03-18T20:38:55.000Z,6.10
2019-03-18T20:41:16.983Z,6.10
2019-03-18T20:44:07.079Z,6.10
2019-03-18T20:46:24.950Z,6.10
2019-03-18T20:48:57.090Z,6.10
2019-03-18T20:51:28.066Z,6.10
2019-03-18T20:54:12.401Z,6.10
2019-03-18T20:56:33.564Z,6.20
2019-03-18T20:59:17.724Z,6.10
2019-03-18T21:01:46.613Z,6.20
2019-03-18T21:04:16.582Z,6.20
2019-03-18T21:06:49.722Z,6.20
2019-03-18T21:09:21.940Z,6.20
2019-03-18T21:11:52.300Z,6.20
2019-03-18T21:14:22.178Z,6.20
2019-03-18T21:16:53.376Z,6.20
2019-03-18T21:19:28.714Z,6.30
2019-03-18T21:22:00.770Z,6.30
2019-03-18T21:24:30.648Z,6.20
2019-03-18T21:27:02.237Z,6.20
2019-03-18T21:29:34.002Z,6.30
2019-03-18T21:32:12.865Z,6.30
2019-03-18T21:34:42.986Z,6.30
2019-03-18T21:37:20.033Z,6.30
2019-03-18T21:40:00.496Z,6.30
2019-03-18T21:42:34.664Z,6.30
2019-03-18T21:45:13.026Z,6.40
2019-03-18T21:47:50.169Z,6.40
2019-03-18T21:50:25.190Z,6.30
2019-03-18T21:52:56.765Z,6.30
2019-03-18T21:55:36.753Z,6.30
2019-03-18T21:58:09.641Z,6.30
2019-03-18T22:00:44.396Z,6.30
2019-03-18T22:03:19.901Z,6.40
2019-03-18T22:05:52.788Z,6.50
2019-03-18T22:08:25.515Z,6.40
2019-03-18T22:10:59.830Z,6.40
2019-03-18T22:13:30.426Z,6.40
2019-03-18T22:16:02.284Z,6.30
2019-03-18T22:18:40.765Z,6.30
2019-03-18T22:21:13.019Z,6.30
2019-03-18T22:23:44.677Z,6.40
2019-03-18T22:26:17.091Z,6.40
2019-03-18T22:29:02.480Z,6.40
2019-03-18T22:31:20.229Z,6.40
2019-03-18T22:33:53.116Z,6.30
2019-03-18T22:36:23.152Z,6.30
2019-03-18T22:38:53.015Z,6.30
2019-03-18T22:41:30.295Z,6.30
2019-03-18T22:44:13.636Z,6.20
2019-03-18T22:46:43.708Z,6.20
2019-03-18T22:49:16.053Z,6.20
2019-03-18T22:51:48.506Z,6.10
2019-03-18T22:54:18.420Z,6.20
2019-03-18T22:56:51.305Z,6.20
2019-03-18T22:59:22.931Z,6.20
2019-03-18T23:01:56.974Z,6.10
2019-03-18T23:04:32.554Z,6.10
2019-03-18T23:07:07.899Z,6.10
2019-03-18T23:09:47.834Z,6.00
2019-03-18T23:12:17.054Z,5.90
2019-03-18T23:14:47.131Z,5.90
2019-03-18T23:17:21.158Z,5.80
2019-03-18T23:19:56.323Z,5.70
2019-03-18T23:22:26.319Z,5.70
2019-03-18T23:25:06.540Z,5.60
2019-03-18T23:27:31.784Z,5.50
2019-03-18T23:30:09.571Z,5.50
2019-03-18T23:32:37.646Z,5.50
2019-03-18T23:35:08.091Z,5.60
2019-03-18T23:37:38.194Z,5.60
2019-03-18T23:40:10.048Z,5.60
2019-03-18T23:42:42.628Z,5.50
2019-03-18T23:45:12.892Z,5.50
2019-03-18T23:47:44.537Z,5.50
2019-03-18T23:50:16.574Z,5.50
2019-03-18T23:52:48.178Z,5.50
2019-03-18T23:55:19.941Z,5.50
2019-03-18T23:57:54.463Z,5.50
